Time;durP1;ratioP1;P1;durP2;ratioP2;P2;SDS_P1;SDS_P2;PMS_P1;PMS_P2;Temp;Humidity;BMP_temperature;BMP_pressure;BME280_temperature;BME280_humidity;BME280_pressure;Samples;Min_cycle;Max_cycle;Signal;HPM_P1;HPM_P2
2022/10/17 00:00:17;;;;;;;28.07;18.92;;;;;;;8.65;100.00;99117.11;1771166;81;20940;-80
2022/10/17 00:02:45;;;;;;;35.15;20.25;;;;;;;8.68;100.00;99121.20;1750390;81;21485;-81
2022/10/17 00:05:11;;;;;;;30.10;18.10;;;;;;;8.68;100.00;99123.38;1762188;81;20862;-81
2022/10/17 00:07:37;;;;;;;33.55;20.15;;;;;;;8.67;100.00;99123.09;1732102;82;21003;-81
2022/10/17 00:10:05;;;;;;;30.48;19.52;;;;;;;8.65;100.00;99125.75;1751159;81;21171;-81
2022/10/17 00:12:31;;;;;;;30.43;21.65;;;;;;;8.65;100.00;99118.99;1732111;81;21495;-81
2022/10/17 00:14:57;;;;;;;31.27;18.85;;;;;;;8.66;100.00;99121.45;1754611;81;20877;-80
2022/10/17 00:17:23;;;;;;;29.35;18.32;;;;;;;8.68;100.00;99119.85;1750415;82;20885;-81
2022/10/17 00:19:49;;;;;;;32.20;20.77;;;;;;;8.70;100.00;99119.89;1771241;81;20957;-80
2022/10/17 00:22:15;;;;;;;30.88;18.37;;;;;;;8.72;100.00;99119.67;1750268;82;21208;-81
2022/10/17 00:24:41;;;;;;;30.15;18.73;;;;;;;8.74;100.00;99125.66;1771152;81;20873;-81
2022/10/17 00:27:07;;;;;;;28.07;18.65;;;;;;;8.73;100.00;99123.48;1770909;81;20893;-81
2022/10/17 00:29:32;;;;;;;34.75;18.98;;;;;;;8.70;100.00;99129.88;1771210;81;20865;-81
2022/10/17 00:31:58;;;;;;;28.05;18.52;;;;;;;8.59;100.00;99130.22;1750570;82;21075;-81
2022/10/17 00:34:24;;;;;;;32.10;18.77;;;;;;;8.55;100.00;99127.72;1770893;81;21246;-81
2022/10/17 00:36:50;;;;;;;29.75;17.85;;;;;;;8.53;100.00;99129.81;1750514;82;20941;-81
2022/10/17 00:39:16;;;;;;;24.92;16.30;;;;;;;8.47;100.00;99125.39;1770816;81;20877;-81
2022/10/17 00:41:42;;;;;;;27.93;17.98;;;;;;;8.45;100.00;99132.89;1771074;81;20937;-81
2022/10/17 00:44:33;;;;;;;26.68;17.40;;;;;;;8.42;100.00;99133.38;1750380;82;21651;-80
2022/10/17 00:47:07;;;;;;;33.35;18.77;;;;;;;8.42;100.00;99138.78;1771021;81;21044;-81
2022/10/17 00:49:35;;;;;;;29.55;18.17;;;;;;;8.36;100.00;99131.63;1771120;81;21079;-80
2022/10/17 00:52:05;;;;;;;27.05;16.25;;;;;;;8.33;100.00;99130.73;1771056;81;21040;-81
2022/10/17 00:54:36;;;;;;;25.48;17.15;;;;;;;8.28;100.00;99117.92;1723011;82;21559;-81
2022/10/17 00:57:01;;;;;;;26.57;16.93;;;;;;;8.26;100.00;99124.63;1770946;81;20989;-80
2022/10/17 00:59:27;;;;;;;26.10;16.40;;;;;;;8.22;100.00;99124.30;1771154;81;21172;-80
2022/10/17 01:02:04;;;;;;;25.80;17.25;;;;;;;8.15;100.00;99117.67;1770996;81;20853;-81
2022/10/17 01:04:31;;;;;;;28.45;17.05;;;;;;;8.07;100.00;99126.13;1764898;81;21081;-81
2022/10/17 01:06:57;;;;;;;25.75;15.28;;;;;;;8.06;100.00;99125.84;1732134;81;21015;-80
2022/10/17 01:09:23;;;;;;;28.25;17.05;;;;;;;8.04;100.00;99123.91;1750870;82;20875;-81
2022/10/17 01:12:06;;;;;;;25.15;15.18;;;;;;;8.00;100.00;99126.77;1732042;81;21154;-80
2022/10/17 01:14:41;;;;;;;28.12;15.58;;;;;;;8.00;100.00;99129.48;1752429;81;21029;-80
2022/10/17 01:17:17;;;;;;;32.08;17.52;;;;;;;7.98;100.00;99130.25;1750398;81;21020;-81
2022/10/17 01:19:58;;;;;;;29.50;16.07;;;;;;;7.95;100.00;99123.98;1770511;81;21012;-80
2022/10/17 01:22:27;;;;;;;28.90;16.35;;;;;;;7.94;100.00;99129.06;1770849;81;21091;-80
2022/10/17 01:25:37;;;;;;;31.85;17.92;;;;;;;7.93;100.00;99126.89;1771012;81;21752;-80
2022/10/17 01:28:41;;;;;;;21.42;15.25;;;;;;;7.91;100.00;99129.54;1770209;81;21009;-81
2022/10/17 01:31:13;;;;;;;24.67;15.63;;;;;;;7.95;100.00;99129.38;1770886;81;21070;-80
2022/10/17 01:34:03;;;;;;;23.62;15.38;;;;;;;7.92;100.00;99129.83;1771266;81;21055;-80
2022/10/17 01:36:46;;;;;;;29.57;15.00;;;;;;;7.91;100.00;99135.76;1750556;82;21484;-80
2022/10/17 01:39:27;;;;;;;32.75;15.98;;;;;;;7.87;100.00;99137.83;1770668;81;21587;-81
2022/10/17 01:42:15;;;;;;;25.30;15.95;;;;;;;7.85;100.00;99128.59;1750347;82;21036;-81
2022/10/17 01:44:58;;;;;;;24.75;14.53;;;;;;;7.84;100.00;99135.58;1771241;81;21003;-80
2022/10/17 01:47:30;;;;;;;23.75;15.55;;;;;;;7.81;100.00;99130.66;1770911;81;21075;-81
2022/10/17 01:50:06;;;;;;;31.07;17.30;;;;;;;7.76;100.00;99132.70;1771100;81;21508;-80
2022/10/17 01:52:38;;;;;;;23.90;14.87;;;;;;;7.73;100.00;99134.53;1770926;81;21113;-81
2022/10/17 01:55:09;;;;;;;22.50;15.90;;;;;;;7.66;100.00;99128.95;1750395;81;21094;-81
2022/10/17 01:57:39;;;;;;;29.80;17.70;;;;;;;7.63;100.00;99133.77;1742856;81;20980;-80
2022/10/17 02:00:09;;;;;;;25.02;15.50;;;;;;;7.57;100.00;99127.94;1771122;81;21024;-80
2022/10/17 02:02:35;;;;;;;32.13;17.90;;;;;;;7.53;100.00;99130.01;1770841;81;21476;-80
2022/10/17 02:05:01;;;;;;;22.70;15.08;;;;;;;7.52;100.00;99132.38;1763013;81;21150;-81
2022/10/17 02:07:27;;;;;;;29.85;17.20;;;;;;;7.50;100.00;99132.63;1759562;81;21017;-80
2022/10/17 02:09:52;;;;;;;26.90;16.12;;;;;;;7.51;100.00;99138.30;1759340;81;20926;-80
2022/10/17 02:12:42;;;;;;;26.27;16.65;;;;;;;7.51;100.00;99132.09;1759701;81;20949;-81
2022/10/17 02:15:47;;;;;;;27.52;14.38;;;;;;;7.51;100.00;99134.27;1763097;81;21013;-80
2022/10/17 02:18:37;;;;;;;19.52;13.65;;;;;;;7.48;100.00;99137.44;1765870;81;21709;-80
2022/10/17 02:21:14;;;;;;;24.05;13.80;;;;;;;7.43;100.00;99145.39;1767230;81;21012;-81
2022/10/17 02:23:57;;;;;;;26.57;15.08;;;;;;;7.42;100.00;99141.05;1764280;81;21068;-81
2022/10/17 02:26:32;;;;;;;26.60;15.75;;;;;;;7.40;100.00;99141.81;1767370;81;21015;-81
2022/10/17 02:29:17;;;;;;;32.20;15.68;;;;;;;7.43;100.00;99139.99;1768472;81;21353;-80
2022/10/17 02:31:47;;;;;;;24.75;14.03;;;;;;;7.43;100.00;99141.87;1768706;81;21440;-81
2022/10/17 02:34:17;;;;;;;27.77;14.43;;;;;;;7.42;100.00;99138.35;1768320;81;21022;-81
2022/10/17 02:36:52;;;;;;;23.42;14.15;;;;;;;7.44;100.00;99147.06;1745717;82;21065;-80
2022/10/17 02:45:59;;;;;;;24.98;13.28;;;;;;;7.54;100.00;99142.44;1768260;81;21067;-81
2022/10/17 02:48:51;;;;;;;25.77;14.47;;;;;;;7.49;100.00;99143.12;1768178;81;21013;-81
2022/10/17 02:51:30;;;;;;;22.42;13.18;;;;;;;7.50;100.00;99143.41;1745823;82;21052;-80
2022/10/17 02:54:10;;;;;;;20.32;13.10;;;;;;;7.54;100.00;99151.34;1745247;82;20993;-81
2022/10/17 02:56:44;;;;;;;23.40;13.30;;;;;;;7.56;100.00;99151.93;1768508;81;20977;-80
2022/10/17 02:59:12;;;;;;;26.12;15.03;;;;;;;7.60;100.00;99152.27;1744163;82;21291;-80
2022/10/17 03:01:38;;;;;;;27.82;14.23;;;;;;;7.69;100.00;99147.36;1768409;81;21072;-80
2022/10/17 03:04:10;;;;;;;22.30;14.75;;;;;;;7.81;100.00;99152.25;1765415;81;20874;-80
2022/10/17 03:06:37;;;;;;;27.05;13.90;;;;;;;7.87;100.00;99156.72;1759674;81;21052;-81
2022/10/17 03:09:03;;;;;;;23.22;13.93;;;;;;;7.81;100.00;99153.59;1731880;82;21324;-80
2022/10/17 03:11:29;;;;;;;22.48;14.30;;;;;;;7.70;100.00;99157.94;1750897;82;21287;-80
2022/10/17 03:13:55;;;;;;;21.27;13.88;;;;;;;7.59;100.00;99156.84;1731771;82;20872;-80
2022/10/17 03:16:20;;;;;;;23.18;13.98;;;;;;;7.46;100.00;99162.47;1760575;81;20960;-81
2022/10/17 03:18:46;;;;;;;25.55;15.43;;;;;;;7.46;100.00;99168.39;1750255;82;20857;-81
2022/10/17 03:21:12;;;;;;;25.43;14.83;;;;;;;7.43;100.00;99166.96;1771229;81;20960;-80
2022/10/17 03:23:38;;;;;;;23.25;14.13;;;;;;;7.41;100.00;99157.47;1750441;82;21642;-80
2022/10/17 03:26:05;;;;;;;25.52;14.68;;;;;;;7.36;100.00;99156.83;1771251;81;20976;-80
2022/10/17 03:28:31;;;;;;;24.50;13.45;;;;;;;7.32;100.00;99169.11;1750455;82;21087;-81
2022/10/17 03:30:57;;;;;;;24.00;14.85;;;;;;;7.25;100.00;99176.47;1771019;81;20884;-81
2022/10/17 03:33:23;;;;;;;23.10;13.72;;;;;;;7.25;100.00;99180.52;1750445;82;21075;-80
2022/10/17 03:35:49;;;;;;;21.65;15.70;;;;;;;7.22;100.00;99185.85;1771237;81;21169;-80
2022/10/17 03:38:15;;;;;;;20.62;13.85;;;;;;;7.18;100.00;99187.38;1770945;81;21102;-80
2022/10/17 03:40:41;;;;;;;25.50;14.75;;;;;;;7.18;100.00;99188.72;1750711;82;21024;-80
2022/10/17 03:43:07;;;;;;;23.12;13.05;;;;;;;7.14;100.00;99194.26;1771121;81;20952;-80
2022/10/17 03:45:33;;;;;;;20.30;13.10;;;;;;;7.11;100.00;99206.86;1771576;81;21627;-80
2022/10/17 03:47:59;;;;;;;20.80;13.20;;;;;;;7.09;100.00;99195.46;1771186;81;21026;-81
2022/10/17 03:50:25;;;;;;;23.40;13.48;;;;;;;7.10;100.00;99200.36;1750775;82;20894;-81
2022/10/17 03:52:51;;;;;;;19.32;12.13;;;;;;;7.06;100.00;99210.22;1771330;81;21582;-80
2022/10/17 03:55:16;;;;;;;26.93;12.78;;;;;;;7.05;100.00;99211.80;1751079;82;20948;-80
2022/10/17 03:57:42;;;;;;;19.90;12.73;;;;;;;7.03;100.00;99208.52;1771304;81;20901;-80
2022/10/17 04:00:10;;;;;;;25.30;13.98;;;;;;;7.00;100.00;99215.17;1750716;82;21964;-81
2022/10/17 04:02:36;;;;;;;18.40;13.05;;;;;;;6.99;100.00;99205.97;1771198;81;21259;-80
2022/10/17 04:05:01;;;;;;;24.23;13.35;;;;;;;6.93;100.00;99204.20;1752035;81;21560;-81
2022/10/17 04:07:27;;;;;;;27.90;15.90;;;;;;;6.87;100.00;99209.97;1752028;81;21643;-80
2022/10/17 04:09:53;;;;;;;22.95;13.00;;;;;;;6.83;100.00;99209.28;1752475;81;21447;-80
2022/10/17 04:12:19;;;;;;;22.42;14.78;;;;;;;6.81;100.00;99210.86;1752361;80;21766;-80
2022/10/17 04:14:45;;;;;;;26.62;15.25;;;;;;;6.80;100.00;99211.91;1752032;81;20866;-81
2022/10/17 04:17:11;;;;;;;25.62;16.75;;;;;;;6.85;100.00;99223.37;1771258;81;20884;-80
2022/10/17 04:19:37;;;;;;;22.80;13.62;;;;;;;6.87;100.00;99224.78;1771520;81;20873;-81
2022/10/17 04:22:03;;;;;;;23.32;14.83;;;;;;;6.90;100.00;99222.97;1750751;81;21028;-80
2022/10/17 04:24:29;;;;;;;25.48;15.72;;;;;;;6.85;100.00;99220.16;1771463;81;21034;-80
2022/10/17 04:26:54;;;;;;;28.00;13.55;;;;;;;6.84;100.00;99222.55;1723313;82;21003;-81
2022/10/17 04:29:20;;;;;;;24.98;14.63;;;;;;;6.82;100.00;99221.93;1770949;81;20952;-81
2022/10/17 04:31:46;;;;;;;22.42;13.88;;;;;;;6.79;100.00;99221.88;1750700;82;20945;-81
2022/10/17 04:34:15;;;;;;;30.00;15.88;;;;;;;6.75;100.00;99224.73;1771151;81;20889;-81
2022/10/17 04:36:41;;;;;;;22.45;12.98;;;;;;;6.79;100.00;99230.48;1750878;82;21078;-79
2022/10/17 04:39:07;;;;;;;23.85;14.58;;;;;;;6.78;100.00;99231.00;1770931;81;20939;-80
2022/10/17 04:41:33;;;;;;;31.35;15.80;;;;;;;6.82;100.00;99226.50;1750814;81;20858;-80
2022/10/17 04:43:59;;;;;;;25.40;14.80;;;;;;;6.86;100.00;99228.53;1770768;81;20857;-81
2022/10/17 04:46:25;;;;;;;23.27;14.63;;;;;;;6.89;100.00;99225.38;1771323;81;20988;-80
2022/10/17 04:48:51;;;;;;;28.98;14.80;;;;;;;6.92;100.00;99223.59;1751442;81;21145;-80
2022/10/17 04:51:17;;;;;;;38.23;15.83;;;;;;;6.89;100.00;99222.67;1772764;80;20936;-81
2022/10/17 04:53:43;;;;;;;24.98;15.55;;;;;;;6.90;100.00;99225.67;1771869;80;21083;-81
2022/10/17 04:56:12;;;;;;;26.50;16.90;;;;;;;6.85;100.00;99224.20;1734089;82;21046;-80
2022/10/17 04:58:38;;;;;;;25.85;15.75;;;;;;;6.85;100.00;99225.55;1751653;80;21060;-81
2022/10/17 05:01:14;;;;;;;35.08;16.82;;;;;;;6.83;100.00;99230.84;1768273;80;21259;-81
2022/10/17 05:03:41;;;;;;;40.80;19.48;;;;;;;6.84;100.00;99238.72;1774112;80;21058;-80
2022/10/17 05:06:16;;;;;;;34.25;18.35;;;;;;;6.87;100.00;99230.70;1749239;81;21062;-80
2022/10/17 05:08:42;;;;;;;31.77;18.80;;;;;;;6.89;100.00;99228.06;1756098;80;21465;-80
2022/10/17 05:11:20;;;;;;;30.62;17.67;;;;;;;6.90;100.00;99229.70;1772869;80;20964;-81
2022/10/17 05:13:52;;;;;;;26.85;16.50;;;;;;;6.86;100.00;99239.84;1763114;80;21957;-80
2022/10/17 05:16:18;;;;;;;46.50;33.85;;;;;;;6.85;100.00;99236.84;1744521;82;21042;-81
2022/10/17 05:18:43;;;;;;;31.45;17.57;;;;;;;6.83;100.00;99235.70;1758996;81;20961;-81
2022/10/17 05:21:09;;;;;;;33.05;17.92;;;;;;;6.82;100.00;99237.28;1751844;81;20883;-81
2022/10/17 05:23:35;;;;;;;30.32;19.32;;;;;;;6.81;100.00;99239.15;1753196;81;20885;-81
2022/10/17 05:26:01;;;;;;;34.50;19.15;;;;;;;6.84;100.00;99247.33;1761371;81;21900;-80
2022/10/17 05:28:27;;;;;;;31.17;19.52;;;;;;;6.77;100.00;99252.27;1764171;80;20877;-80
2022/10/17 05:30:53;;;;;;;31.37;19.50;;;;;;;6.65;100.00;99254.56;1792871;80;21353;-80
2022/10/17 05:33:19;;;;;;;32.88;19.23;;;;;;;6.59;100.00;99251.44;1792642;80;20913;-80
2022/10/17 05:35:45;;;;;;;33.58;19.80;;;;;;;6.63;100.00;99257.48;1784173;80;20900;-81
2022/10/17 05:38:11;;;;;;;40.65;26.05;;;;;;;6.62;100.00;99260.41;1757864;81;21014;-80
2022/10/17 05:40:38;;;;;;;33.48;19.00;;;;;;;6.65;100.00;99261.30;1764354;80;21022;-80
2022/10/17 05:43:04;;;;;;;31.15;19.90;;;;;;;6.72;100.00;99264.75;1742630;81;20995;-81
2022/10/17 05:45:30;;;;;;;36.83;21.05;;;;;;;6.77;100.00;99267.61;1744562;80;21024;-81
2022/10/17 05:47:56;;;;;;;34.50;18.32;;;;;;;6.82;100.00;99266.39;1740536;80;20892;-80
2022/10/17 05:50:24;;;;;;;32.40;20.05;;;;;;;6.87;100.00;99263.86;1744289;80;21223;-80
2022/10/17 05:52:53;;;;;;;31.55;18.30;;;;;;;6.93;100.00;99269.70;1748753;79;21090;-80
2022/10/17 05:55:19;;;;;;;32.40;18.10;;;;;;;6.98;100.00;99268.48;1752081;79;21110;-80
2022/10/17 05:57:45;;;;;;;36.23;18.17;;;;;;;7.01;100.00;99265.35;1747855;79;20959;-81
2022/10/17 06:00:12;;;;;;;32.42;19.60;;;;;;;7.07;100.00;99261.73;1747239;80;20868;-81
2022/10/17 06:02:39;;;;;;;30.02;17.60;;;;;;;7.07;100.00;99264.95;1728732;80;21153;-80
2022/10/17 06:05:05;;;;;;;30.80;17.05;;;;;;;7.11;100.00;99268.03;1750597;79;21018;-80
2022/10/17 06:07:31;;;;;;;31.82;17.45;;;;;;;7.17;100.00;99269.80;1734422;81;21118;-81
2022/10/17 06:09:57;;;;;;;29.30;17.75;;;;;;;7.30;100.00;99281.77;1748217;79;20868;-81
2022/10/17 06:12:24;;;;;;;34.05;19.55;;;;;;;7.41;100.00;99280.98;1744956;81;21684;-80
2022/10/17 06:14:50;;;;;;;27.02;16.73;;;;;;;7.52;100.00;99276.19;1741615;79;21104;-80
2022/10/17 06:17:15;;;;;;;28.10;17.65;;;;;;;7.61;100.00;99273.98;1748786;80;20935;-81
2022/10/17 06:19:43;;;;;;;33.70;18.37;;;;;;;7.68;100.00;99284.66;1758867;79;21110;-80
2022/10/17 06:22:09;;;;;;;27.07;16.48;;;;;;;7.75;100.00;99288.09;1778707;79;21110;-81
2022/10/17 06:24:35;;;;;;;30.23;18.25;;;;;;;7.87;100.00;99293.00;1757014;79;22679;-80
2022/10/17 06:27:01;;;;;;;33.88;17.52;;;;;;;8.00;100.00;99289.26;1764913;81;21124;-81
2022/10/17 06:29:27;;;;;;;28.15;17.17;;;;;;;8.27;100.00;99287.77;1751731;80;21107;-80
2022/10/17 06:31:53;;;;;;;39.15;22.50;;;;;;;8.39;100.00;99294.04;1754103;80;20952;-80
2022/10/17 06:34:19;;;;;;;49.65;30.62;;;;;;;8.52;100.00;99292.97;1740302;81;20991;-81
2022/10/17 06:36:45;;;;;;;56.02;37.17;;;;;;;8.63;100.00;99294.02;1756266;80;20937;-81
2022/10/17 06:39:10;;;;;;;45.73;30.40;;;;;;;8.78;100.00;99301.12;1753004;80;21063;-80
2022/10/17 06:41:36;;;;;;;32.15;17.48;;;;;;;8.93;100.00;99303.34;1749351;80;21013;-81
2022/10/17 06:44:08;;;;;;;29.02;17.07;;;;;;;9.12;100.00;99302.11;1741422;80;21030;-80
2022/10/17 06:46:30;;;;;;;29.20;17.42;;;;;;;9.35;100.00;99299.06;1747673;81;21048;-81
2022/10/17 06:48:56;;;;;;;35.63;22.60;;;;;;;9.47;100.00;99302.00;1747632;77;20917;-81
2022/10/17 06:51:22;;;;;;;35.92;24.35;;;;;;;9.77;100.00;99305.00;1751359;80;21488;-80
2022/10/17 06:53:48;;;;;;;81.95;50.03;;;;;;;9.91;100.00;99310.38;1759451;79;20939;-81
2022/10/17 06:56:14;;;;;;;37.88;24.05;;;;;;;10.08;100.00;99309.05;1721467;80;20907;-81
2022/10/17 06:58:40;;;;;;;42.78;30.02;;;;;;;10.40;100.00;99306.09;1750635;80;20929;-81
2022/10/17 07:01:11;;;;;;;53.13;41.75;;;;;;;10.80;100.00;99311.84;1760587;80;20955;-81
2022/10/17 07:03:37;;;;;;;27.22;17.77;;;;;;;11.88;100.00;99316.17;1739339;81;21684;-81
2022/10/17 07:06:03;;;;;;;19.23;13.98;;;;;;;12.86;100.00;99312.58;1741100;81;21034;-81
2022/10/17 07:08:29;;;;;;;19.20;13.68;;;;;;;13.85;100.00;99310.83;1739841;80;21431;-82
2022/10/17 07:10:55;;;;;;;21.75;12.98;;;;;;;14.80;100.00;99315.77;1745921;81;20865;-81
2022/10/17 07:13:21;;;;;;;19.40;11.78;;;;;;;15.73;100.00;99316.55;1753112;81;21674;-82
2022/10/17 07:15:47;;;;;;;15.18;10.72;;;;;;;16.32;100.00;99319.15;1750100;80;21300;-81
2022/10/17 07:18:13;;;;;;;19.00;11.93;;;;;;;16.48;100.00;99313.52;1741978;80;20893;-82
2022/10/17 07:20:39;;;;;;;17.45;11.55;;;;;;;15.92;100.00;99314.78;1749328;80;21558;-82
2022/10/17 07:23:05;;;;;;;19.57;11.93;;;;;;;15.56;100.00;99318.79;1755609;80;20897;-81
2022/10/17 07:25:31;;;;;;;17.75;11.45;;;;;;;15.19;100.00;99316.73;1723829;80;20991;-83
2022/10/17 07:27:57;;;;;;;28.90;15.60;;;;;;;14.82;100.00;99313.58;1770923;79;21064;-82
2022/10/17 07:30:23;;;;;;;22.00;14.73;;;;;;;14.57;100.00;99311.15;1763777;80;21006;-81
2022/10/17 07:32:53;;;;;;;17.00;12.65;;;;;;;14.42;100.00;99316.58;1747117;81;21196;-81
2022/10/17 07:35:20;;;;;;;19.80;12.63;;;;;;;14.31;100.00;99314.41;1778626;80;21028;-81
2022/10/17 07:37:46;;;;;;;23.87;13.32;;;;;;;14.21;100.00;99315.77;1757054;80;21104;-81
2022/10/17 07:40:12;;;;;;;20.97;12.85;;;;;;;14.10;100.00;99319.04;1745942;80;21889;-81
2022/10/17 07:42:38;;;;;;;22.13;13.18;;;;;;;14.00;100.00;99316.83;1760256;80;20960;-81
2022/10/17 07:45:05;;;;;;;19.10;12.65;;;;;;;13.98;100.00;99314.37;1749055;81;20912;-81
2022/10/17 07:47:34;;;;;;;33.02;21.23;;;;;;;13.96;100.00;99318.47;1751205;80;21063;-81
2022/10/17 07:49:58;;;;;;;23.10;15.25;;;;;;;13.94;100.00;99316.02;1758086;80;20997;-81
2022/10/17 07:52:24;;;;;;;22.32;14.20;;;;;;;13.94;100.00;99317.38;1745704;80;21323;-82
2022/10/17 07:54:50;;;;;;;24.00;13.35;;;;;;;13.99;100.00;99321.45;1731699;81;20909;-82
2022/10/17 07:57:16;;;;;;;26.37;13.15;;;;;;;14.03;100.00;99319.84;1750375;80;20984;-82
2022/10/17 07:59:42;;;;;;;20.00;13.03;;;;;;;14.09;100.00;99320.11;1748145;80;21515;-81
2022/10/17 08:02:13;;;;;;;20.77;13.13;;;;;;;14.24;100.00;99327.48;1745377;80;20950;-82
2022/10/17 08:04:39;;;;;;;16.45;11.18;;;;;;;14.32;100.00;99317.40;1738715;81;22148;-82
2022/10/17 08:07:05;;;;;;;23.65;12.10;;;;;;;14.39;100.00;99322.04;1741265;81;21126;-81
2022/10/17 08:09:31;;;;;;;19.62;12.40;;;;;;;14.44;100.00;99319.88;1749278;80;20979;-81
2022/10/17 08:11:57;;;;;;;18.37;11.15;;;;;;;14.54;100.00;99310.89;1743063;81;20892;-83
2022/10/17 08:14:23;;;;;;;18.12;11.35;;;;;;;14.62;100.00;99318.52;1747992;80;21101;-81
2022/10/17 08:16:49;;;;;;;16.40;11.88;;;;;;;14.70;100.00;99309.78;1749363;80;21578;-82
2022/10/17 08:19:14;;;;;;;14.60;10.58;;;;;;;14.84;100.00;99310.83;1742651;80;20968;-81
2022/10/17 08:21:42;;;;;;;21.35;11.50;;;;;;;15.04;100.00;99313.23;1741552;81;20963;-82
2022/10/17 08:24:08;;;;;;;17.15;11.95;;;;;;;15.44;100.00;99315.00;1747242;81;20960;-82
2022/10/17 08:26:34;;;;;;;16.82;9.05;;;;;;;17.52;100.00;99311.08;1715679;81;20975;-82
2022/10/17 08:29:00;;;;;;;12.40;8.73;;;;;;;19.56;97.64;99310.38;1778998;80;21115;-83
2022/10/17 08:31:26;;;;;;;12.07;9.20;;;;;;;21.20;91.59;99308.06;1747613;80;20950;-82
2022/10/17 08:33:51;;;;;;;14.05;7.92;;;;;;;22.31;89.22;99313.57;1754641;80;20846;-83
2022/10/17 08:36:19;;;;;;;13.58;8.25;;;;;;;21.81;89.99;99309.87;1760727;80;20964;-82
2022/10/17 08:38:45;;;;;;;11.80;8.28;;;;;;;21.30;89.98;99307.80;1752775;80;21332;-82
2022/10/17 08:41:40;;;;;;;16.35;9.20;;;;;;;20.82;87.47;99309.34;1746894;80;21467;-82
2022/10/17 08:44:28;;;;;;;21.33;14.55;;;;;;;20.30;85.73;99310.92;1752498;81;21033;-82
2022/10/17 08:46:57;;;;;;;15.48;9.95;;;;;;;19.87;81.31;99308.63;1750681;81;21518;-82
2022/10/17 08:49:31;;;;;;;11.00;9.33;;;;;;;19.42;82.53;99305.72;1750876;81;21043;-82
2022/10/17 08:52:02;;;;;;;18.48;10.03;;;;;;;19.19;82.99;99303.98;1738588;81;21493;-82
2022/10/17 08:54:41;;;;;;;15.18;10.45;;;;;;;19.06;81.52;99303.45;1706626;82;21094;-83
2022/10/17 08:57:15;;;;;;;20.15;12.25;;;;;;;18.91;83.17;99306.47;1741605;81;21091;-82
2022/10/17 08:59:42;;;;;;;13.65;10.75;;;;;;;18.89;82.82;99304.04;1762236;80;21028;-83
2022/10/17 09:02:48;;;;;;;16.82;10.90;;;;;;;18.84;82.39;99302.75;1749158;81;21879;-83
2022/10/17 09:05:37;;;;;;;15.10;9.33;;;;;;;18.86;82.66;99302.69;1740942;81;21609;-83
2022/10/17 09:08:30;;;;;;;16.73;11.08;;;;;;;18.85;80.88;99302.44;1745361;81;21448;-83
2022/10/17 09:11:17;;;;;;;17.02;9.50;;;;;;;18.78;81.72;99297.90;1761202;80;20981;-82
2022/10/17 09:14:07;;;;;;;17.10;9.83;;;;;;;18.83;80.39;99300.56;1715344;80;21032;-81
2022/10/17 09:16:54;;;;;;;16.40;9.70;;;;;;;18.88;80.51;99292.77;1747538;81;20987;-82
2022/10/17 09:19:24;;;;;;;13.60;9.65;;;;;;;18.92;81.13;99295.74;1754121;81;22111;-82
2022/10/17 09:22:03;;;;;;;13.83;9.40;;;;;;;18.90;81.93;99297.42;1740984;80;21078;-83
2022/10/17 09:24:58;;;;;;;13.25;9.98;;;;;;;18.94;82.46;99294.31;1758455;80;21106;-81
2022/10/17 09:27:43;;;;;;;17.75;11.03;;;;;;;19.02;80.99;99294.98;1745373;80;21070;-82
2022/10/17 09:30:23;;;;;;;13.08;9.48;;;;;;;19.20;79.91;99296.56;1735671;81;21503;-81
2022/10/17 09:32:49;;;;;;;18.17;11.50;;;;;;;19.27;79.73;99301.91;1736710;81;22190;-81
2022/10/17 09:35:15;;;;;;;13.35;9.05;;;;;;;19.34;80.10;99299.56;1735124;81;21951;-81
2022/10/17 09:37:41;;;;;;;14.90;9.63;;;;;;;19.39;80.39;99300.81;1733891;81;21414;-80
2022/10/17 09:40:12;;;;;;;18.75;10.20;;;;;;;19.45;79.50;99300.16;1750147;80;21016;-83
2022/10/17 09:42:38;;;;;;;16.48;10.00;;;;;;;19.46;79.32;99296.29;1749383;81;21547;-81
2022/10/17 09:45:18;;;;;;;13.08;8.65;;;;;;;19.45;79.55;99296.85;1742761;81;20968;-80
2022/10/17 09:48:01;;;;;;;17.07;10.20;;;;;;;19.50;78.28;99297.88;1736492;81;21870;-81
2022/10/17 09:50:32;;;;;;;13.98;9.83;;;;;;;19.63;78.56;99297.88;1724487;81;21024;-80
2022/10/17 09:53:15;;;;;;;15.05;10.15;;;;;;;19.71;78.11;99300.45;1722893;81;21108;-81
2022/10/17 09:55:44;;;;;;;15.55;10.48;;;;;;;19.75;77.79;99296.55;1755143;81;20999;-80
2022/10/17 09:58:10;;;;;;;14.00;9.88;;;;;;;19.81;78.04;99304.34;1745166;81;21051;-80
2022/10/17 10:00:44;;;;;;;15.13;11.05;;;;;;;19.92;77.18;99303.58;1744529;81;21812;-81
2022/10/17 10:03:22;;;;;;;18.62;9.88;;;;;;;19.95;77.54;99297.45;1718297;81;21212;-81
2022/10/17 10:06:08;;;;;;;14.80;10.20;;;;;;;19.93;78.09;99299.70;1733156;81;21541;-80
2022/10/17 10:08:38;;;;;;;21.40;10.38;;;;;;;19.90;78.25;99298.92;1745279;81;21570;-80
2022/10/17 10:11:07;;;;;;;12.30;8.53;;;;;;;19.86;78.61;99293.25;1744636;81;21153;-80
2022/10/17 10:13:33;;;;;;;15.48;9.33;;;;;;;19.85;77.80;99300.44;1740897;81;21059;-80
2022/10/17 10:16:24;;;;;;;13.30;8.58;;;;;;;19.91;77.14;99292.30;1738284;81;21043;-80
2022/10/17 10:18:50;;;;;;;13.83;7.72;;;;;;;19.93;77.58;99295.02;1747482;81;21074;-80
2022/10/17 10:21:23;;;;;;;12.70;8.03;;;;;;;19.92;77.50;99291.20;1743654;80;22104;-81
2022/10/17 10:24:11;;;;;;;18.65;11.38;;;;;;;19.97;77.17;99282.81;1739774;81;21042;-81
2022/10/17 10:26:44;;;;;;;12.70;9.25;;;;;;;19.98;76.45;99288.00;1741899;81;21805;-80
2022/10/17 10:29:36;;;;;;;10.48;8.10;;;;;;;19.99;76.75;99278.62;1745769;81;21503;-80
2022/10/17 10:32:23;;;;;;;12.45;8.30;;;;;;;20.06;75.58;99289.20;1742881;81;21146;-81
2022/10/17 10:35:02;;;;;;;18.32;10.98;;;;;;;20.20;73.69;99285.03;1738931;81;21512;-81
2022/10/17 10:37:35;;;;;;;14.35;8.68;;;;;;;20.41;72.83;99287.51;1736740;81;21368;-80
2022/10/17 10:40:08;;;;;;;10.23;7.97;;;;;;;20.43;73.53;99288.06;1738102;81;21086;-80
2022/10/17 10:42:38;;;;;;;11.38;8.63;;;;;;;20.41;73.52;99288.89;1718029;81;21075;-80
2022/10/17 10:45:26;;;;;;;14.40;9.08;;;;;;;20.41;74.36;99288.08;1734306;81;21091;-81
2022/10/17 10:47:58;;;;;;;20.10;10.45;;;;;;;20.34;75.41;99281.66;1747453;81;21061;-80
2022/10/17 10:50:39;;;;;;;16.95;12.65;;;;;;;20.33;75.38;99284.13;1738200;81;21491;-80
2022/10/17 10:53:29;;;;;;;18.98;11.48;;;;;;;20.31;75.69;99282.83;1741490;81;21318;-81
2022/10/17 10:56:04;;;;;;;11.53;9.08;;;;;;;20.30;75.79;99280.64;1691697;81;20977;-81
2022/10/17 10:59:11;;;;;;;13.93;9.08;;;;;;;20.35;74.55;99282.47;1748081;81;21362;-80
2022/10/17 11:02:05;;;;;;;11.30;8.28;;;;;;;20.45;74.06;99284.42;1735076;81;21011;-80
2022/10/17 11:05:02;;;;;;;13.13;7.95;;;;;;;20.56;73.79;99274.77;1737841;81;21054;-81
2022/10/17 11:07:46;;;;;;;10.90;7.50;;;;;;;20.68;72.73;99267.32;1741968;81;22075;-81
2022/10/17 11:10:38;;;;;;;11.75;7.83;;;;;;;20.75;73.42;99266.28;1744244;81;21515;-80
2022/10/17 11:13:27;;;;;;;10.55;7.83;;;;;;;20.82;72.11;99258.95;1730892;81;21130;-81
2022/10/17 11:16:13;;;;;;;12.28;8.20;;;;;;;20.93;71.14;99261.66;1736518;81;21098;-81
2022/10/17 11:18:46;;;;;;;11.50;7.33;;;;;;;21.01;70.98;99260.88;1736707;81;21502;-81
2022/10/17 11:21:16;;;;;;;10.70;8.08;;;;;;;21.09;70.68;99254.59;1740703;81;21474;-81
2022/10/17 11:24:04;;;;;;;11.05;7.92;;;;;;;21.16;70.62;99261.59;1741398;81;21015;-81
2022/10/17 11:26:33;;;;;;;10.65;7.95;;;;;;;21.16;70.03;99256.08;1739595;81;21575;-80
2022/10/17 11:29:01;;;;;;;;;;;;;;;21.25;70.01;99255.53;1722135;81;21000;-81
2022/10/17 11:31:35;;;;;;;;;;;;;;;21.25;70.10;99251.40;1746507;81;20174;-80
2022/10/17 11:34:30;;;;;;;11.28;8.03;;;;;;;21.28;71.96;99248.05;1745265;81;21073;-81
2022/10/17 11:37:00;;;;;;;16.95;11.55;;;;;;;21.23;71.15;99248.16;1742387;81;21019;-80
2022/10/17 11:39:34;;;;;;;17.50;12.40;;;;;;;21.28;70.10;99254.37;1741189;81;21062;-81
2022/10/17 11:42:07;;;;;;;13.58;8.38;;;;;;;21.31;70.82;99247.40;1742366;81;20949;-80
2022/10/17 11:44:39;;;;;;;17.42;8.40;;;;;;;21.27;70.89;99242.27;1739821;81;21687;-80